sensor_id;sensor_type;location;lat;lon;timestamp;pressure;altitude;pressure_sealevel;temperature;humidity
72055;BME280;59936;51.490;5.436;2023-11-21T00:01:00;100925.44;;;9.93;74.63
72055;BME280;59936;51.490;5.436;2023-11-21T00:06:10;100940.09;;;8.40;79.43
72055;BME280;59936;51.490;5.436;2023-11-21T00:08:39;100925.59;;;9.57;76.05
72055;BME280;59936;51.490;5.436;2023-11-21T00:11:07;100929.72;;;9.78;74.83
72055;BME280;59936;51.490;5.436;2023-11-21T00:13:36;100935.59;;;9.81;74.25
72055;BME280;59936;51.490;5.436;2023-11-21T00:16:05;100934.94;;;9.79;73.99
72055;BME280;59936;51.490;5.436;2023-11-21T00:18:34;100941.44;;;9.77;73.86
72055;BME280;59936;51.490;5.436;2023-11-21T00:21:02;100940.75;;;9.75;73.63
72055;BME280;59936;51.490;5.436;2023-11-21T00:23:31;100947.72;;;9.68;73.36
72055;BME280;59936;51.490;5.436;2023-11-21T00:25:59;100947.72;;;9.68;73.36
72055;BME280;59936;51.490;5.436;2023-11-21T00:28:28;100944.16;;;9.59;73.36
72055;BME280;59936;51.490;5.436;2023-11-21T00:30:56;100949.16;;;9.54;73.34
72055;BME280;59936;51.490;5.436;2023-11-21T00:33:25;100938.91;;;9.49;73.28
72055;BME280;59936;51.490;5.436;2023-11-21T00:35:54;100938.91;;;9.49;73.28
72055;BME280;59936;51.490;5.436;2023-11-21T00:38:22;100941.38;;;9.43;73.31
72055;BME280;59936;51.490;5.436;2023-11-21T00:40:51;100941.69;;;9.40;73.26
72055;BME280;59936;51.490;5.436;2023-11-21T00:43:19;100941.34;;;9.35;73.23
72055;BME280;59936;51.490;5.436;2023-11-21T00:45:48;100940.25;;;9.28;73.25
72055;BME280;59936;51.490;5.436;2023-11-21T00:48:16;100950.44;;;9.24;73.30
72055;BME280;59936;51.490;5.436;2023-11-21T00:50:45;100948.22;;;9.19;73.22
72055;BME280;59936;51.490;5.436;2023-11-21T00:53:14;100942.66;;;9.13;73.27
72055;BME280;59936;51.490;5.436;2023-11-21T00:55:42;100949.47;;;9.07;73.25
72055;BME280;59936;51.490;5.436;2023-11-21T00:58:11;100953.56;;;9.02;73.26
72055;BME280;59936;51.490;5.436;2023-11-21T01:00:39;100941.84;;;8.95;73.28
72055;BME280;59936;51.490;5.436;2023-11-21T01:03:08;100952.00;;;8.91;73.20
72055;BME280;59936;51.490;5.436;2023-11-21T01:05:36;100955.81;;;8.88;73.06
72055;BME280;59936;51.490;5.436;2023-11-21T01:08:05;100967.69;;;8.76;73.25
72055;BME280;59936;51.490;5.436;2023-11-21T01:10:34;100968.31;;;8.70;73.14
72055;BME280;59936;51.490;5.436;2023-11-21T01:13:03;100968.31;;;8.70;73.14
72055;BME280;59936;51.490;5.436;2023-11-21T01:15:31;100983.13;;;8.65;73.35
72055;BME280;59936;51.490;5.436;2023-11-21T01:18:00;100978.03;;;8.62;73.28
72055;BME280;59936;51.490;5.436;2023-11-21T01:20:29;100973.28;;;8.55;73.28
72055;BME280;59936;51.490;5.436;2023-11-21T01:22:57;100976.28;;;8.52;73.21
72055;BME280;59936;51.490;5.436;2023-11-21T01:25:26;100983.91;;;8.47;73.17
72055;BME280;59936;51.490;5.436;2023-11-21T01:27:55;100992.50;;;8.41;73.16
72055;BME280;59936;51.490;5.436;2023-11-21T01:30:24;100993.94;;;8.36;73.17
72055;BME280;59936;51.490;5.436;2023-11-21T01:32:52;100991.03;;;8.29;73.20
72055;BME280;59936;51.490;5.436;2023-11-21T01:35:21;100993.16;;;8.26;73.39
72055;BME280;59936;51.490;5.436;2023-11-21T01:37:50;100990.78;;;8.23;73.33
72055;BME280;59936;51.490;5.436;2023-11-21T01:40:18;101009.59;;;8.21;73.26
72055;BME280;59936;51.490;5.436;2023-11-21T01:42:47;101009.59;;;8.21;73.26
72055;BME280;59936;51.490;5.436;2023-11-21T01:45:16;101016.22;;;8.17;73.23
72055;BME280;59936;51.490;5.436;2023-11-21T01:47:44;101016.22;;;8.17;73.23
72055;BME280;59936;51.490;5.436;2023-11-21T01:50:15;101017.22;;;8.16;73.45
72055;BME280;59936;51.490;5.436;2023-11-21T01:52:46;101012.41;;;8.19;73.47
72055;BME280;59936;51.490;5.436;2023-11-21T01:55:16;101009.47;;;8.23;73.56
72055;BME280;59936;51.490;5.436;2023-11-21T01:57:46;101004.53;;;8.28;73.58
72055;BME280;59936;51.490;5.436;2023-11-21T02:00:16;101004.06;;;8.32;73.64
72055;BME280;59936;51.490;5.436;2023-11-21T02:02:46;101011.50;;;8.38;73.69
72055;BME280;59936;51.490;5.436;2023-11-21T02:05:17;101004.88;;;8.42;73.82
72055;BME280;59936;51.490;5.436;2023-11-21T02:07:47;101014.13;;;8.48;73.86
72055;BME280;59936;51.490;5.436;2023-11-21T02:10:16;101016.31;;;8.62;74.02
72055;BME280;59936;51.490;5.436;2023-11-21T02:12:44;101016.31;;;8.62;74.02
72055;BME280;59936;51.490;5.436;2023-11-21T02:15:13;101016.44;;;8.61;74.22
72055;BME280;59936;51.490;5.436;2023-11-21T02:17:42;101013.91;;;8.59;74.41
72055;BME280;59936;51.490;5.436;2023-11-21T02:20:12;101018.84;;;8.64;74.49
72055;BME280;59936;51.490;5.436;2023-11-21T02:22:42;101015.88;;;8.67;74.54
72055;BME280;59936;51.490;5.436;2023-11-21T02:25:21;101023.59;;;8.70;74.58
72055;BME280;59936;51.490;5.436;2023-11-21T02:27:49;101040.25;;;8.81;74.58
72055;BME280;59936;51.490;5.436;2023-11-21T02:30:18;101040.25;;;8.81;74.58
72055;BME280;59936;51.490;5.436;2023-11-21T02:32:49;101029.84;;;8.78;74.47
72055;BME280;59936;51.490;5.436;2023-11-21T02:35:18;101041.22;;;8.80;74.52
72055;BME280;59936;51.490;5.436;2023-11-21T02:37:48;101050.25;;;8.79;74.49
72055;BME280;59936;51.490;5.436;2023-11-21T02:40:17;101041.69;;;8.76;74.60
72055;BME280;59936;51.490;5.436;2023-11-21T02:42:46;101047.50;;;8.71;74.67
72055;BME280;59936;51.490;5.436;2023-11-21T02:45:15;101050.47;;;8.68;74.86
72055;BME280;59936;51.490;5.436;2023-11-21T02:47:44;101055.09;;;8.66;74.91
72055;BME280;59936;51.490;5.436;2023-11-21T02:50:13;101052.16;;;8.60;75.10
72055;BME280;59936;51.490;5.436;2023-11-21T02:52:42;101049.47;;;8.60;75.21
72055;BME280;59936;51.490;5.436;2023-11-21T02:55:10;101050.06;;;8.63;75.30
72055;BME280;59936;51.490;5.436;2023-11-21T02:57:39;101049.47;;;8.69;75.18
72055;BME280;59936;51.490;5.436;2023-11-21T03:00:08;101048.78;;;8.67;75.16
72055;BME280;59936;51.490;5.436;2023-11-21T03:02:37;101045.41;;;8.65;75.25
72055;BME280;59936;51.490;5.436;2023-11-21T03:05:06;101047.78;;;8.68;75.24
72055;BME280;59936;51.490;5.436;2023-11-21T03:07:36;101046.50;;;8.72;75.11
72055;BME280;59936;51.490;5.436;2023-11-21T03:10:07;101051.69;;;8.74;75.05
72055;BME280;59936;51.490;5.436;2023-11-21T03:12:37;101052.00;;;8.71;75.08
72055;BME280;59936;51.490;5.436;2023-11-21T03:15:07;101044.13;;;8.69;75.18
72055;BME280;59936;51.490;5.436;2023-11-21T03:17:36;101050.31;;;8.70;75.12
72055;BME280;59936;51.490;5.436;2023-11-21T03:20:05;101051.59;;;8.66;75.17
72055;BME280;59936;51.490;5.436;2023-11-21T03:22:34;101048.63;;;8.59;75.26
72055;BME280;59936;51.490;5.436;2023-11-21T03:25:02;101059.06;;;8.62;75.32
72055;BME280;59936;51.490;5.436;2023-11-21T03:27:31;101055.41;;;8.63;75.29
72055;BME280;59936;51.490;5.436;2023-11-21T03:30:00;101061.44;;;8.65;75.24
72055;BME280;59936;51.490;5.436;2023-11-21T03:32:28;101055.81;;;8.68;75.17
72055;BME280;59936;51.490;5.436;2023-11-21T03:34:57;101054.97;;;8.68;75.07
72055;BME280;59936;51.490;5.436;2023-11-21T03:37:26;101066.63;;;8.67;75.13
72055;BME280;59936;51.490;5.436;2023-11-21T03:39:55;101076.03;;;8.71;74.90
72055;BME280;59936;51.490;5.436;2023-11-21T03:42:24;101076.03;;;8.71;74.90
72055;BME280;59936;51.490;5.436;2023-11-21T03:44:53;101072.81;;;8.67;74.93
72055;BME280;59936;51.490;5.436;2023-11-21T03:47:22;101070.28;;;8.66;74.88
72055;BME280;59936;51.490;5.436;2023-11-21T03:49:50;101065.09;;;8.64;74.94
72055;BME280;59936;51.490;5.436;2023-11-21T03:52:19;101066.94;;;8.64;74.90
72055;BME280;59936;51.490;5.436;2023-11-21T03:54:47;101065.09;;;8.64;74.81
72055;BME280;59936;51.490;5.436;2023-11-21T03:57:16;101065.94;;;8.65;74.86
72055;BME280;59936;51.490;5.436;2023-11-21T03:59:44;101077.03;;;8.70;74.75
72055;BME280;59936;51.490;5.436;2023-11-21T04:02:13;101077.03;;;8.70;74.75
72055;BME280;59936;51.490;5.436;2023-11-21T04:04:42;101077.47;;;8.65;74.83
72055;BME280;59936;51.490;5.436;2023-11-21T04:07:10;101075.94;;;8.63;74.92
72055;BME280;59936;51.490;5.436;2023-11-21T04:09:39;101089.97;;;8.65;74.99
72055;BME280;59936;51.490;5.436;2023-11-21T04:12:08;101081.53;;;8.69;74.98
72055;BME280;59936;51.490;5.436;2023-11-21T04:14:38;101093.22;;;8.68;74.97
72055;BME280;59936;51.490;5.436;2023-11-21T04:17:06;101103.19;;;8.66;75.21
72055;BME280;59936;51.490;5.436;2023-11-21T04:19:35;101103.19;;;8.66;75.21
72055;BME280;59936;51.490;5.436;2023-11-21T04:22:03;101096.47;;;8.62;75.35
72055;BME280;59936;51.490;5.436;2023-11-21T04:24:32;101109.09;;;8.70;75.48
72055;BME280;59936;51.490;5.436;2023-11-21T04:27:01;101109.09;;;8.70;75.48
72055;BME280;59936;51.490;5.436;2023-11-21T04:29:29;101112.06;;;8.67;75.47
72055;BME280;59936;51.490;5.436;2023-11-21T04:31:58;101111.91;;;8.68;75.57
72055;BME280;59936;51.490;5.436;2023-11-21T04:34:26;101126.34;;;8.75;75.52
72055;BME280;59936;51.490;5.436;2023-11-21T04:36:55;101124.75;;;8.82;75.38
72055;BME280;59936;51.490;5.436;2023-11-21T04:39:23;101125.06;;;8.79;75.33
72055;BME280;59936;51.490;5.436;2023-11-21T04:41:52;101128.44;;;8.81;75.42
72055;BME280;59936;51.490;5.436;2023-11-21T04:44:21;101131.78;;;8.83;75.42
72055;BME280;59936;51.490;5.436;2023-11-21T04:46:49;101133.47;;;8.84;75.38
72055;BME280;59936;51.490;5.436;2023-11-21T04:49:18;101137.13;;;8.83;75.39
72055;BME280;59936;51.490;5.436;2023-11-21T04:51:46;101138.72;;;8.76;75.50
72055;BME280;59936;51.490;5.436;2023-11-21T04:54:15;101137.88;;;8.76;75.60
72055;BME280;59936;51.490;5.436;2023-11-21T04:56:43;101141.25;;;8.78;75.52
72055;BME280;59936;51.490;5.436;2023-11-21T04:59:12;101143.63;;;8.81;75.33
72055;BME280;59936;51.490;5.436;2023-11-21T05:01:41;101147.69;;;8.85;75.31
72055;BME280;59936;51.490;5.436;2023-11-21T05:04:09;101147.69;;;8.85;75.31
72055;BME280;59936;51.490;5.436;2023-11-21T05:06:38;101154.84;;;8.84;75.24
72055;BME280;59936;51.490;5.436;2023-11-21T05:09:06;101155.69;;;8.85;75.24
72055;BME280;59936;51.490;5.436;2023-11-21T05:11:35;101154.72;;;8.86;75.27
72055;BME280;59936;51.490;5.436;2023-11-21T05:14:03;101154.28;;;8.91;75.27
72055;BME280;59936;51.490;5.436;2023-11-21T05:16:32;101160.19;;;8.94;75.26
72055;BME280;59936;51.490;5.436;2023-11-21T05:19:01;101144.13;;;8.94;75.29
72055;BME280;59936;51.490;5.436;2023-11-21T05:21:30;101145.13;;;8.93;75.36
72055;BME280;59936;51.490;5.436;2023-11-21T05:23:58;101148.63;;;8.94;75.40
72055;BME280;59936;51.490;5.436;2023-11-21T05:26:27;101153.38;;;9.00;75.38
72055;BME280;59936;51.490;5.436;2023-11-21T05:28:56;101154.69;;;8.96;75.56
72055;BME280;59936;51.490;5.436;2023-11-21T05:31:24;101164.91;;;9.00;75.54
72055;BME280;59936;51.490;5.436;2023-11-21T05:33:53;101168.41;;;9.01;75.59
72055;BME280;59936;51.490;5.436;2023-11-21T05:36:21;101185.97;;;9.13;75.72
72055;BME280;59936;51.490;5.436;2023-11-21T05:38:50;101185.97;;;9.13;75.72
72055;BME280;59936;51.490;5.436;2023-11-21T05:41:18;101195.38;;;9.17;75.49
72055;BME280;59936;51.490;5.436;2023-11-21T05:43:47;101187.88;;;9.20;75.41
72055;BME280;59936;51.490;5.436;2023-11-21T05:46:15;101194.34;;;9.18;75.57
72055;BME280;59936;51.490;5.436;2023-11-21T05:48:44;101201.38;;;9.19;75.70
72055;BME280;59936;51.490;5.436;2023-11-21T05:51:13;101199.25;;;9.22;75.70
72055;BME280;59936;51.490;5.436;2023-11-21T05:53:41;101204.88;;;9.29;75.60
72055;BME280;59936;51.490;5.436;2023-11-21T05:56:10;101204.28;;;9.35;75.56
72055;BME280;59936;51.490;5.436;2023-11-21T05:58:39;101207.78;;;9.36;75.62
72055;BME280;59936;51.490;5.436;2023-11-21T06:01:07;101200.63;;;9.36;75.64
72055;BME280;59936;51.490;5.436;2023-11-21T06:03:37;101208.50;;;9.38;75.67
72055;BME280;59936;51.490;5.436;2023-11-21T06:06:05;101203.81;;;9.40;75.72
72055;BME280;59936;51.490;5.436;2023-11-21T06:08:40;101216.03;;;9.42;75.70
72055;BME280;59936;51.490;5.436;2023-11-21T06:11:08;101221.09;;;9.45;75.69
72055;BME280;59936;51.490;5.436;2023-11-21T06:13:37;101229.81;;;9.47;75.69
72055;BME280;59936;51.490;5.436;2023-11-21T06:16:06;101229.81;;;9.47;75.69
72055;BME280;59936;51.490;5.436;2023-11-21T06:18:34;101229.13;;;9.45;75.82
72055;BME280;59936;51.490;5.436;2023-11-21T06:21:03;101234.03;;;9.50;75.77
72055;BME280;59936;51.490;5.436;2023-11-21T06:23:32;101229.66;;;9.49;75.73
72055;BME280;59936;51.490;5.436;2023-11-21T06:26:00;101228.13;;;9.46;75.84
72055;BME280;59936;51.490;5.436;2023-11-21T06:28:29;101228.44;;;9.43;75.91
72055;BME280;59936;51.490;5.436;2023-11-21T06:30:58;101231.66;;;9.47;75.96
72055;BME280;59936;51.490;5.436;2023-11-21T06:33:26;101239.22;;;9.51;75.86
72055;BME280;59936;51.490;5.436;2023-11-21T06:35:55;101238.25;;;9.52;75.80
72055;BME280;59936;51.490;5.436;2023-11-21T06:38:24;101235.72;;;9.51;75.91
72055;BME280;59936;51.490;5.436;2023-11-21T06:40:52;101243.75;;;9.51;75.90
72055;BME280;59936;51.490;5.436;2023-11-21T06:43:21;101243.03;;;9.49;75.92
72055;BME280;59936;51.490;5.436;2023-11-21T06:45:49;101240.91;;;9.52;75.92
72055;BME280;59936;51.490;5.436;2023-11-21T06:48:18;101243.59;;;9.52;75.82
72055;BME280;59936;51.490;5.436;2023-11-21T06:50:47;101247.41;;;9.50;75.90
72055;BME280;59936;51.490;5.436;2023-11-21T06:53:15;101247.25;;;9.51;75.97
72055;BME280;59936;51.490;5.436;2023-11-21T06:55:44;101252.03;;;9.57;75.86
72055;BME280;59936;51.490;5.436;2023-11-21T06:58:12;101258.72;;;9.62;75.75
72055;BME280;59936;51.490;5.436;2023-11-21T07:00:41;101257.75;;;9.63;75.71
72055;BME280;59936;51.490;5.436;2023-11-21T07:03:10;101257.06;;;9.61;75.79
72055;BME280;59936;51.490;5.436;2023-11-21T07:05:38;101260.25;;;9.64;75.82
72055;BME280;59936;51.490;5.436;2023-11-21T07:08:10;101264.19;;;9.70;75.70
72055;BME280;59936;51.490;5.436;2023-11-21T07:10:39;101276.28;;;9.74;75.63
72055;BME280;59936;51.490;5.436;2023-11-21T07:13:13;101274.84;;;9.79;75.58
72055;BME280;59936;51.490;5.436;2023-11-21T07:15:42;101274.53;;;9.82;75.50
72055;BME280;59936;51.490;5.436;2023-11-21T07:18:10;101273.69;;;9.82;75.55
72055;BME280;59936;51.490;5.436;2023-11-21T07:20:39;101285.06;;;9.84;75.59
72055;BME280;59936;51.490;5.436;2023-11-21T07:23:07;101301.69;;;9.87;75.68
72055;BME280;59936;51.490;5.436;2023-11-21T07:25:36;101301.69;;;9.87;75.68
72055;BME280;59936;51.490;5.436;2023-11-21T07:28:05;101302.66;;;9.86;75.75
72055;BME280;59936;51.490;5.436;2023-11-21T07:30:33;101317.44;;;9.90;75.74
72055;BME280;59936;51.490;5.436;2023-11-21T07:33:02;101316.00;;;9.96;75.73
72055;BME280;59936;51.490;5.436;2023-11-21T07:35:30;101319.09;;;10.01;75.69
72055;BME280;59936;51.490;5.436;2023-11-21T07:37:59;101322.59;;;10.02;75.70
72055;BME280;59936;51.490;5.436;2023-11-21T07:40:28;101331.00;;;10.07;75.82
72055;BME280;59936;51.490;5.436;2023-11-21T07:42:56;101331.00;;;10.07;75.82
72055;BME280;59936;51.490;5.436;2023-11-21T07:45:25;101330.16;;;10.06;75.87
72055;BME280;59936;51.490;5.436;2023-11-21T07:47:54;101337.59;;;10.12;75.85
72055;BME280;59936;51.490;5.436;2023-11-21T07:50:23;101336.31;;;10.16;75.77
72055;BME280;59936;51.490;5.436;2023-11-21T07:52:51;101341.81;;;10.15;75.82
72055;BME280;59936;51.490;5.436;2023-11-21T07:55:20;101337.97;;;10.17;75.95
72055;BME280;59936;51.490;5.436;2023-11-21T07:57:48;101337.53;;;10.22;75.97
72055;BME280;59936;51.490;5.436;2023-11-21T08:00:17;101337.53;;;10.22;75.97
72055;BME280;59936;51.490;5.436;2023-11-21T08:02:46;101343.63;;;10.14;76.12
72055;BME280;59936;51.490;5.436;2023-11-21T08:05:15;101338.59;;;10.11;76.32
72055;BME280;59936;51.490;5.436;2023-11-21T08:07:43;101340.13;;;10.14;76.29
72055;BME280;59936;51.490;5.436;2023-11-21T08:10:12;101346.72;;;10.19;76.21
72055;BME280;59936;51.490;5.436;2023-11-21T08:12:40;101347.31;;;10.31;75.98
72055;BME280;59936;51.490;5.436;2023-11-21T08:15:09;101354.44;;;10.40;75.68
72055;BME280;59936;51.490;5.436;2023-11-21T08:17:38;101356.97;;;10.42;75.60
72055;BME280;59936;51.490;5.436;2023-11-21T08:20:07;101360.34;;;10.44;75.69
72055;BME280;59936;51.490;5.436;2023-11-21T08:22:35;101356.69;;;10.45;75.71
72055;BME280;59936;51.490;5.436;2023-11-21T08:25:05;101370.31;;;10.51;75.69
72055;BME280;59936;51.490;5.436;2023-11-21T08:27:34;101373.38;;;10.56;75.68
72055;BME280;59936;51.490;5.436;2023-11-21T08:30:03;101367.88;;;10.58;75.68
72055;BME280;59936;51.490;5.436;2023-11-21T08:32:32;101376.00;;;10.66;75.71
72055;BME280;59936;51.490;5.436;2023-11-21T08:35:00;101384.47;;;10.79;75.57
72055;BME280;59936;51.490;5.436;2023-11-21T08:37:33;101384.47;;;10.79;75.57
72055;BME280;59936;51.490;5.436;2023-11-21T08:40:05;101384.03;;;10.84;75.66
72055;BME280;59936;51.490;5.436;2023-11-21T08:42:35;101392.75;;;10.86;75.60
72055;BME280;59936;51.490;5.436;2023-11-21T08:45:04;101392.59;;;10.87;75.69
72055;BME280;59936;51.490;5.436;2023-11-21T08:47:33;101396.63;;;10.91;75.70
72055;BME280;59936;51.490;5.436;2023-11-21T08:50:02;101403.06;;;10.99;75.79
72055;BME280;59936;51.490;5.436;2023-11-21T08:52:31;101403.06;;;10.99;75.79
72055;BME280;59936;51.490;5.436;2023-11-21T08:54:59;101403.47;;;11.04;75.78
72055;BME280;59936;51.490;5.436;2023-11-21T08:57:28;101406.81;;;11.06;75.82
72055;BME280;59936;51.490;5.436;2023-11-21T08:59:57;101411.19;;;11.07;75.83
72055;BME280;59936;51.490;5.436;2023-11-21T09:02:26;101407.38;;;11.09;75.93
72055;BME280;59936;51.490;5.436;2023-11-21T09:04:54;101402.19;;;11.16;75.87
72055;BME280;59936;51.490;5.436;2023-11-21T09:07:23;101403.03;;;11.16;75.92
72055;BME280;59936;51.490;5.436;2023-11-21T09:09:51;101408.63;;;11.23;76.03
72055;BME280;59936;51.490;5.436;2023-11-21T09:12:20;101399.03;;;11.20;76.08
72055;BME280;59936;51.490;5.436;2023-11-21T09:14:49;101407.41;;;11.17;76.21
72055;BME280;59936;51.490;5.436;2023-11-21T09:17:17;101407.41;;;11.17;76.39
72055;BME280;59936;51.490;5.436;2023-11-21T09:19:46;101416.66;;;11.23;76.48
72055;BME280;59936;51.490;5.436;2023-11-21T09:22:15;101399.13;;;11.28;76.39
72055;BME280;59936;51.490;5.436;2023-11-21T09:24:44;101411.72;;;11.36;76.43
72055;BME280;59936;51.490;5.436;2023-11-21T09:27:12;101412.84;;;11.51;76.36
72055;BME280;59936;51.490;5.436;2023-11-21T09:29:41;101421.44;;;11.63;76.13
72055;BME280;59936;51.490;5.436;2023-11-21T09:32:09;101427.50;;;11.65;76.03
72055;BME280;59936;51.490;5.436;2023-11-21T09:34:38;101431.56;;;11.69;76.03
72055;BME280;59936;51.490;5.436;2023-11-21T09:37:07;101444.34;;;11.75;76.06
72055;BME280;59936;51.490;5.436;2023-11-21T09:39:36;101447.34;;;11.72;76.18
72055;BME280;59936;51.490;5.436;2023-11-21T09:42:10;101447.03;;;11.75;76.25
72055;BME280;59936;51.490;5.436;2023-11-21T09:47:10;101455.59;;;11.79;76.47
72055;BME280;59936;51.490;5.436;2023-11-21T09:49:49;101457.50;;;11.86;76.46
72055;BME280;59936;51.490;5.436;2023-11-21T09:52:24;101471.97;;;11.93;76.31
72055;BME280;59936;51.490;5.436;2023-11-21T09:54:55;101468.44;;;11.93;76.26
72055;BME280;59936;51.490;5.436;2023-11-21T09:57:25;101470.97;;;11.94;76.36
72055;BME280;59936;51.490;5.436;2023-11-21T09:59:54;101465.13;;;11.99;76.54
72055;BME280;59936;51.490;5.436;2023-11-21T10:02:25;101465.19;;;12.07;76.50
72055;BME280;59936;51.490;5.436;2023-11-21T10:04:55;101472.97;;;12.18;76.77
72055;BME280;59936;51.490;5.436;2023-11-21T10:07:24;101473.88;;;12.35;76.55
72055;BME280;59936;51.490;5.436;2023-11-21T10:09:54;101480.78;;;12.38;76.58
72055;BME280;59936;51.490;5.436;2023-11-21T10:12:24;101487.84;;;12.47;76.98
72055;BME280;59936;51.490;5.436;2023-11-21T10:14:57;101479.16;;;12.69;76.93
72055;BME280;59936;51.490;5.436;2023-11-21T10:17:28;101480.22;;;12.84;76.86
72055;BME280;59936;51.490;5.436;2023-11-21T10:20:01;101479.06;;;13.03;76.39
72055;BME280;59936;51.490;5.436;2023-11-21T10:22:31;101480.91;;;13.11;76.26
72055;BME280;59936;51.490;5.436;2023-11-21T10:25:00;101489.31;;;13.16;76.22
72055;BME280;59936;51.490;5.436;2023-11-21T10:27:28;101493.84;;;13.15;76.33
72055;BME280;59936;51.490;5.436;2023-11-21T10:29:57;101492.69;;;13.18;76.26
72055;BME280;59936;51.490;5.436;2023-11-21T10:32:28;101504.97;;;13.20;76.51
72055;BME280;59936;51.490;5.436;2023-11-21T10:34:57;101507.47;;;13.30;76.70
72055;BME280;59936;51.490;5.436;2023-11-21T10:37:25;101507.69;;;13.28;76.57
72055;BME280;59936;51.490;5.436;2023-11-21T10:39:58;101496.38;;;13.33;76.77
72055;BME280;59936;51.490;5.436;2023-11-21T10:42:27;101498.72;;;13.36;76.58
72055;BME280;59936;51.490;5.436;2023-11-21T10:44:55;101505.63;;;13.30;76.46
72055;BME280;59936;51.490;5.436;2023-11-21T10:47:31;101505.63;;;13.30;76.46
72055;BME280;59936;51.490;5.436;2023-11-21T10:50:00;101500.44;;;13.29;76.77
72055;BME280;59936;51.490;5.436;2023-11-21T10:52:29;101511.38;;;13.27;76.61
72055;BME280;59936;51.490;5.436;2023-11-21T10:54:57;101520.63;;;13.25;76.74
72055;BME280;59936;51.490;5.436;2023-11-21T10:57:26;101520.63;;;13.25;76.74
72055;BME280;59936;51.490;5.436;2023-11-21T10:59:56;101514.22;;;13.18;76.73
72055;BME280;59936;51.490;5.436;2023-11-21T11:02:25;101511.34;;;13.19;77.08
72055;BME280;59936;51.490;5.436;2023-11-21T11:04:54;101509.00;;;13.24;77.19
72055;BME280;59936;51.490;5.436;2023-11-21T11:07:27;101519.25;;;13.21;77.10
72055;BME280;59936;51.490;5.436;2023-11-21T11:09:56;101526.50;;;13.20;77.03
72055;BME280;59936;51.490;5.436;2023-11-21T11:12:27;101518.25;;;13.22;76.97
72055;BME280;59936;51.490;5.436;2023-11-21T11:14:57;101520.44;;;13.18;77.02
72055;BME280;59936;51.490;5.436;2023-11-21T11:17:26;101514.56;;;13.23;77.07
72055;BME280;59936;51.490;5.436;2023-11-21T11:19:55;101517.09;;;13.24;77.08
72055;BME280;59936;51.490;5.436;2023-11-21T11:22:40;101528.00;;;13.31;77.13
72055;BME280;59936;51.490;5.436;2023-11-21T11:25:35;101536.41;;;13.36;76.91
72055;BME280;59936;51.490;5.436;2023-11-21T11:28:20;101542.66;;;13.37;76.98
72055;BME280;59936;51.490;5.436;2023-11-21T11:33:48;101545.00;;;13.40;76.63
72055;BME280;59936;51.490;5.436;2023-11-21T11:36:44;101547.88;;;13.38;76.82
72055;BME280;59936;51.490;5.436;2023-11-21T11:39:27;101553.59;;;13.43;76.89
72055;BME280;59936;51.490;5.436;2023-11-21T11:42:01;101539.00;;;13.46;76.78
72055;BME280;59936;51.490;5.436;2023-11-21T11:47:16;101544.19;;;13.55;76.78
72055;BME280;59936;51.490;5.436;2023-11-21T11:50:08;101545.53;;;13.59;76.62
72055;BME280;59936;51.490;5.436;2023-11-21T11:52:48;101547.22;;;13.60;76.64
72055;BME280;59936;51.490;5.436;2023-11-21T11:55:20;101571.25;;;13.38;76.68
72055;BME280;59936;51.490;5.436;2023-11-21T11:57:54;101571.25;;;13.38;76.68
72055;BME280;59936;51.490;5.436;2023-11-21T12:02:56;101574.44;;;13.25;77.02
72055;BME280;59936;51.490;5.436;2023-11-21T12:05:26;101585.53;;;13.30;77.19
72055;BME280;59936;51.490;5.436;2023-11-21T12:07:56;101586.56;;;13.37;77.11
72055;BME280;59936;51.490;5.436;2023-11-21T12:10:37;101592.63;;;13.39;76.98
72055;BME280;59936;51.490;5.436;2023-11-21T12:13:08;101595.66;;;13.36;76.87
72055;BME280;59936;51.490;5.436;2023-11-21T12:15:38;101597.16;;;13.30;76.85
72055;BME280;59936;51.490;5.436;2023-11-21T12:18:07;101600.34;;;13.26;77.00
72055;BME280;59936;51.490;5.436;2023-11-21T12:20:39;101601.69;;;13.22;76.93
72055;BME280;59936;51.490;5.436;2023-11-21T12:23:08;101605.38;;;13.21;76.95
72055;BME280;59936;51.490;5.436;2023-11-21T12:25:37;101606.56;;;13.18;77.01
72055;BME280;59936;51.490;5.436;2023-11-21T12:28:05;101605.72;;;13.18;77.10
72055;BME280;59936;51.490;5.436;2023-11-21T12:30:39;101623.75;;;13.25;77.01
72055;BME280;59936;51.490;5.436;2023-11-21T12:33:08;101623.75;;;13.25;77.01
72055;BME280;59936;51.490;5.436;2023-11-21T12:35:37;101613.78;;;13.18;76.93
72055;BME280;59936;51.490;5.436;2023-11-21T12:38:06;101612.25;;;13.15;77.08
72055;BME280;59936;51.490;5.436;2023-11-21T12:40:34;101618.84;;;13.21;77.07
72055;BME280;59936;51.490;5.436;2023-11-21T12:43:03;101616.16;;;13.21;77.00
72055;BME280;59936;51.490;5.436;2023-11-21T12:45:32;101618.84;;;13.21;77.03
72055;BME280;59936;51.490;5.436;2023-11-21T12:48:05;101619.38;;;13.24;77.09
72055;BME280;59936;51.490;5.436;2023-11-21T12:50:35;101628.13;;;13.26;76.76
72055;BME280;59936;51.490;5.436;2023-11-21T12:53:05;101628.13;;;13.26;76.76
72055;BME280;59936;51.490;5.436;2023-11-21T12:55:36;101631.97;;;13.24;76.90
72055;BME280;59936;51.490;5.436;2023-11-21T12:58:09;101636.31;;;13.17;76.86
72055;BME280;59936;51.490;5.436;2023-11-21T13:00:44;101633.97;;;13.14;76.99
72055;BME280;59936;51.490;5.436;2023-11-21T13:03:14;101628.91;;;13.11;76.91
72055;BME280;59936;51.490;5.436;2023-11-21T13:05:45;101630.91;;;13.09;76.85
72055;BME280;59936;51.490;5.436;2023-11-21T13:08:16;101638.81;;;13.02;76.93
72055;BME280;59936;51.490;5.436;2023-11-21T13:10:46;101638.81;;;13.02;76.93
72055;BME280;59936;51.490;5.436;2023-11-21T13:13:16;101638.81;;;13.02;77.22
72055;BME280;59936;51.490;5.436;2023-11-21T13:15:53;101638.81;;;13.02;77.22
72055;BME280;59936;51.490;5.436;2023-11-21T13:18:24;101645.72;;;13.05;77.10
72055;BME280;59936;51.490;5.436;2023-11-21T13:20:57;101645.88;;;13.03;77.07